sensor_id;sensor_type;location;lat;lon;timestamp;temperature;humidity
32394;DHT22;18853;45.426;9.206;2022-09-25T00:00:50;21.60;58.80
32394;DHT22;18853;45.426;9.206;2022-09-25T00:03:18;21.60;58.90
32394;DHT22;18853;45.426;9.206;2022-09-25T00:05:44;21.60;59.00
32394;DHT22;18853;45.426;9.206;2022-09-25T00:08:11;21.60;59.20
32394;DHT22;18853;45.426;9.206;2022-09-25T00:10:45;21.50;59.20
32394;DHT22;18853;45.426;9.206;2022-09-25T00:13:11;21.50;59.10
32394;DHT22;18853;45.426;9.206;2022-09-25T00:15:37;21.50;59.20
32394;DHT22;18853;45.426;9.206;2022-09-25T00:18:09;21.50;59.20
32394;DHT22;18853;45.426;9.206;2022-09-25T00:20:35;21.50;59.10
32394;DHT22;18853;45.426;9.206;2022-09-25T00:23:02;21.50;59.10
32394;DHT22;18853;45.426;9.206;2022-09-25T00:25:27;21.50;59.00
32394;DHT22;18853;45.426;9.206;2022-09-25T00:27:53;21.50;59.00
32394;DHT22;18853;45.426;9.206;2022-09-25T00:30:19;21.50;58.80
32394;DHT22;18853;45.426;9.206;2022-09-25T00:32:45;21.50;58.60
32394;DHT22;18853;45.426;9.206;2022-09-25T00:35:10;21.50;58.50
32394;DHT22;18853;45.426;9.206;2022-09-25T00:37:36;21.50;58.50
32394;DHT22;18853;45.426;9.206;2022-09-25T00:40:03;21.50;58.50
32394;DHT22;18853;45.426;9.206;2022-09-25T00:42:29;21.60;58.50
32394;DHT22;18853;45.426;9.206;2022-09-25T00:50:10;21.60;57.80
32394;DHT22;18853;45.426;9.206;2022-09-25T00:52:37;21.50;57.80
32394;DHT22;18853;45.426;9.206;2022-09-25T00:55:05;21.50;57.60
32394;DHT22;18853;45.426;9.206;2022-09-25T00:57:34;21.50;57.60
32394;DHT22;18853;45.426;9.206;2022-09-25T01:00:11;21.50;57.40
32394;DHT22;18853;45.426;9.206;2022-09-25T01:02:43;21.60;57.40
32394;DHT22;18853;45.426;9.206;2022-09-25T01:05:14;21.50;57.40
32394;DHT22;18853;45.426;9.206;2022-09-25T01:07:44;21.50;57.50
32394;DHT22;18853;45.426;9.206;2022-09-25T01:10:11;21.50;57.70
32394;DHT22;18853;45.426;9.206;2022-09-25T01:12:42;21.50;57.90
32394;DHT22;18853;45.426;9.206;2022-09-25T01:15:13;21.50;57.90
32394;DHT22;18853;45.426;9.206;2022-09-25T01:29:08;21.30;57.90
32394;DHT22;18853;45.426;9.206;2022-09-25T01:39:38;21.00;58.80
32394;DHT22;18853;45.426;9.206;2022-09-25T01:42:23;21.00;58.90
32394;DHT22;18853;45.426;9.206;2022-09-25T01:45:03;21.00;59.00
32394;DHT22;18853;45.426;9.206;2022-09-25T01:47:34;20.90;58.90
32394;DHT22;18853;45.426;9.206;2022-09-25T01:50:08;20.90;58.80
32394;DHT22;18853;45.426;9.206;2022-09-25T01:52:44;20.90;58.90
32394;DHT22;18853;45.426;9.206;2022-09-25T01:58:19;21.00;58.60
32394;DHT22;18853;45.426;9.206;2022-09-25T02:00:50;21.10;58.20
32394;DHT22;18853;45.426;9.206;2022-09-25T02:03:29;21.10;58.20
32394;DHT22;18853;45.426;9.206;2022-09-25T02:06:01;21.10;58.00
32394;DHT22;18853;45.426;9.206;2022-09-25T02:08:35;21.10;57.80
32394;DHT22;18853;45.426;9.206;2022-09-25T02:11:04;21.10;57.90
32394;DHT22;18853;45.426;9.206;2022-09-25T02:13:37;21.10;57.90
32394;DHT22;18853;45.426;9.206;2022-09-25T02:16:11;21.10;57.90
32394;DHT22;18853;45.426;9.206;2022-09-25T02:18:40;21.10;58.00
32394;DHT22;18853;45.426;9.206;2022-09-25T02:21:41;21.10;58.10
32394;DHT22;18853;45.426;9.206;2022-09-25T02:26:42;21.10;57.90
32394;DHT22;18853;45.426;9.206;2022-09-25T02:29:08;21.20;57.90
32394;DHT22;18853;45.426;9.206;2022-09-25T02:31:37;21.20;57.80
32394;DHT22;18853;45.426;9.206;2022-09-25T02:34:05;21.30;57.70
32394;DHT22;18853;45.426;9.206;2022-09-25T02:36:31;21.20;57.70
32394;DHT22;18853;45.426;9.206;2022-09-25T02:38:59;21.20;57.60
32394;DHT22;18853;45.426;9.206;2022-09-25T02:46:42;21.30;57.60
32394;DHT22;18853;45.426;9.206;2022-09-25T02:49:31;21.30;57.70
32394;DHT22;18853;45.426;9.206;2022-09-25T02:52:05;21.30;57.60
32394;DHT22;18853;45.426;9.206;2022-09-25T02:54:57;21.30;57.60
32394;DHT22;18853;45.426;9.206;2022-09-25T03:00:04;21.20;57.70
32394;DHT22;18853;45.426;9.206;2022-09-25T03:02:32;21.20;57.80
32394;DHT22;18853;45.426;9.206;2022-09-25T03:04:58;21.20;57.70
32394;DHT22;18853;45.426;9.206;2022-09-25T03:07:25;21.20;57.70
32394;DHT22;18853;45.426;9.206;2022-09-25T03:09:53;21.30;57.60
32394;DHT22;18853;45.426;9.206;2022-09-25T03:12:19;21.30;57.60
32394;DHT22;18853;45.426;9.206;2022-09-25T03:14:45;21.20;57.50
32394;DHT22;18853;45.426;9.206;2022-09-25T03:17:11;21.20;57.50
32394;DHT22;18853;45.426;9.206;2022-09-25T03:19:38;21.20;57.70
32394;DHT22;18853;45.426;9.206;2022-09-25T03:22:04;21.20;57.70
32394;DHT22;18853;45.426;9.206;2022-09-25T03:24:29;21.10;57.70
32394;DHT22;18853;45.426;9.206;2022-09-25T03:26:56;21.20;57.70
32394;DHT22;18853;45.426;9.206;2022-09-25T03:29:21;21.20;57.70
32394;DHT22;18853;45.426;9.206;2022-09-25T03:31:47;21.20;57.50
32394;DHT22;18853;45.426;9.206;2022-09-25T03:34:15;21.20;57.60
32394;DHT22;18853;45.426;9.206;2022-09-25T03:36:41;21.10;57.80
32394;DHT22;18853;45.426;9.206;2022-09-25T03:39:07;21.10;58.00
32394;DHT22;18853;45.426;9.206;2022-09-25T03:41:35;21.10;58.00
32394;DHT22;18853;45.426;9.206;2022-09-25T03:44:01;21.20;57.90
32394;DHT22;18853;45.426;9.206;2022-09-25T03:46:30;21.20;57.80
32394;DHT22;18853;45.426;9.206;2022-09-25T03:48:56;21.20;57.80
32394;DHT22;18853;45.426;9.206;2022-09-25T03:51:24;21.20;57.90
32394;DHT22;18853;45.426;9.206;2022-09-25T03:53:50;21.20;57.90
32394;DHT22;18853;45.426;9.206;2022-09-25T03:56:18;21.20;57.90
32394;DHT22;18853;45.426;9.206;2022-09-25T03:58:45;21.20;57.90
32394;DHT22;18853;45.426;9.206;2022-09-25T04:01:12;21.20;57.90
32394;DHT22;18853;45.426;9.206;2022-09-25T04:03:38;21.20;57.80
32394;DHT22;18853;45.426;9.206;2022-09-25T04:06:05;21.20;57.70
32394;DHT22;18853;45.426;9.206;2022-09-25T04:08:33;21.20;57.80
32394;DHT22;18853;45.426;9.206;2022-09-25T04:11:00;21.20;57.70
32394;DHT22;18853;45.426;9.206;2022-09-25T04:13:31;21.10;57.70
32394;DHT22;18853;45.426;9.206;2022-09-25T04:15:58;21.20;57.80
32394;DHT22;18853;45.426;9.206;2022-09-25T04:18:26;21.20;57.80
32394;DHT22;18853;45.426;9.206;2022-09-25T04:20:54;21.10;57.90
32394;DHT22;18853;45.426;9.206;2022-09-25T04:23:20;21.20;57.80
32394;DHT22;18853;45.426;9.206;2022-09-25T04:25:46;21.20;57.70
32394;DHT22;18853;45.426;9.206;2022-09-25T04:28:13;21.20;57.70
32394;DHT22;18853;45.426;9.206;2022-09-25T04:30:39;21.10;57.80
32394;DHT22;18853;45.426;9.206;2022-09-25T04:33:04;21.10;57.70
32394;DHT22;18853;45.426;9.206;2022-09-25T04:35:49;21.10;57.90
32394;DHT22;18853;45.426;9.206;2022-09-25T04:38:14;21.10;57.80
32394;DHT22;18853;45.426;9.206;2022-09-25T04:40:40;21.10;57.80
32394;DHT22;18853;45.426;9.206;2022-09-25T04:43:06;21.20;57.80
32394;DHT22;18853;45.426;9.206;2022-09-25T04:45:34;21.20;57.70
32394;DHT22;18853;45.426;9.206;2022-09-25T04:48:02;21.20;57.70
32394;DHT22;18853;45.426;9.206;2022-09-25T04:50:28;21.20;58.40
32394;DHT22;18853;45.426;9.206;2022-09-25T04:52:56;21.20;57.70
32394;DHT22;18853;45.426;9.206;2022-09-25T04:55:22;21.20;57.80
32394;DHT22;18853;45.426;9.206;2022-09-25T04:57:53;21.20;57.80
32394;DHT22;18853;45.426;9.206;2022-09-25T05:00:19;21.20;57.70
32394;DHT22;18853;45.426;9.206;2022-09-25T05:02:46;21.30;57.70
32394;DHT22;18853;45.426;9.206;2022-09-25T05:05:12;21.30;57.70
32394;DHT22;18853;45.426;9.206;2022-09-25T05:07:38;21.30;57.70
32394;DHT22;18853;45.426;9.206;2022-09-25T05:10:05;21.30;57.60
32394;DHT22;18853;45.426;9.206;2022-09-25T05:12:33;21.30;57.60
32394;DHT22;18853;45.426;9.206;2022-09-25T05:14:59;21.30;57.70
32394;DHT22;18853;45.426;9.206;2022-09-25T05:17:25;21.30;57.80
32394;DHT22;18853;45.426;9.206;2022-09-25T05:19:50;21.30;57.60
32394;DHT22;18853;45.426;9.206;2022-09-25T05:22:16;21.30;57.60
32394;DHT22;18853;45.426;9.206;2022-09-25T05:24:41;21.20;57.50
32394;DHT22;18853;45.426;9.206;2022-09-25T05:27:07;21.20;57.60
32394;DHT22;18853;45.426;9.206;2022-09-25T05:29:33;21.20;57.80
32394;DHT22;18853;45.426;9.206;2022-09-25T05:31:59;21.10;58.30
32394;DHT22;18853;45.426;9.206;2022-09-25T05:34:25;21.20;57.90
32394;DHT22;18853;45.426;9.206;2022-09-25T05:36:54;21.20;57.80
32394;DHT22;18853;45.426;9.206;2022-09-25T05:39:19;21.20;57.80
32394;DHT22;18853;45.426;9.206;2022-09-25T05:41:45;21.20;57.70
32394;DHT22;18853;45.426;9.206;2022-09-25T05:44:11;21.20;57.70
32394;DHT22;18853;45.426;9.206;2022-09-25T05:46:37;21.20;57.80
32394;DHT22;18853;45.426;9.206;2022-09-25T05:49:03;21.20;57.80
32394;DHT22;18853;45.426;9.206;2022-09-25T05:51:30;21.20;57.70
32394;DHT22;18853;45.426;9.206;2022-09-25T05:53:56;21.20;57.70
32394;DHT22;18853;45.426;9.206;2022-09-25T05:56:22;21.20;57.60
32394;DHT22;18853;45.426;9.206;2022-09-25T05:58:51;21.30;57.60
32394;DHT22;18853;45.426;9.206;2022-09-25T06:01:17;21.30;57.60
32394;DHT22;18853;45.426;9.206;2022-09-25T06:03:44;21.30;57.50
32394;DHT22;18853;45.426;9.206;2022-09-25T06:06:10;21.30;57.50
32394;DHT22;18853;45.426;9.206;2022-09-25T06:08:36;21.20;57.50
32394;DHT22;18853;45.426;9.206;2022-09-25T06:11:02;21.20;57.50
32394;DHT22;18853;45.426;9.206;2022-09-25T06:13:29;21.20;57.60
32394;DHT22;18853;45.426;9.206;2022-09-25T06:16:00;21.30;57.60
32394;DHT22;18853;45.426;9.206;2022-09-25T06:18:26;21.30;57.40
32394;DHT22;18853;45.426;9.206;2022-09-25T06:21:02;21.30;57.40
32394;DHT22;18853;45.426;9.206;2022-09-25T06:23:27;21.30;57.40
32394;DHT22;18853;45.426;9.206;2022-09-25T06:25:53;21.20;57.50
32394;DHT22;18853;45.426;9.206;2022-09-25T06:28:19;21.10;57.60
32394;DHT22;18853;45.426;9.206;2022-09-25T06:30:45;21.10;58.00
32394;DHT22;18853;45.426;9.206;2022-09-25T06:33:13;21.00;58.30
32394;DHT22;18853;45.426;9.206;2022-09-25T06:35:42;20.90;58.60
32394;DHT22;18853;45.426;9.206;2022-09-25T06:38:08;20.80;58.80
32394;DHT22;18853;45.426;9.206;2022-09-25T06:40:34;20.80;58.90
32394;DHT22;18853;45.426;9.206;2022-09-25T06:43:03;20.70;59.10
32394;DHT22;18853;45.426;9.206;2022-09-25T06:45:31;20.70;59.30
32394;DHT22;18853;45.426;9.206;2022-09-25T06:48:06;20.70;59.20
32394;DHT22;18853;45.426;9.206;2022-09-25T06:53:10;20.70;59.20
32394;DHT22;18853;45.426;9.206;2022-09-25T06:55:37;20.70;59.20
32394;DHT22;18853;45.426;9.206;2022-09-25T06:58:04;20.80;59.00
32394;DHT22;18853;45.426;9.206;2022-09-25T07:00:31;20.70;59.10
32394;DHT22;18853;45.426;9.206;2022-09-25T07:02:57;20.80;59.10
32394;DHT22;18853;45.426;9.206;2022-09-25T07:05:43;20.80;59.20
32394;DHT22;18853;45.426;9.206;2022-09-25T07:08:10;20.70;59.20
32394;DHT22;18853;45.426;9.206;2022-09-25T07:10:38;20.80;59.20
32394;DHT22;18853;45.426;9.206;2022-09-25T07:13:04;20.80;59.10
32394;DHT22;18853;45.426;9.206;2022-09-25T07:15:30;20.80;59.30
32394;DHT22;18853;45.426;9.206;2022-09-25T07:17:55;20.80;59.40
32394;DHT22;18853;45.426;9.206;2022-09-25T07:20:21;20.80;59.50
32394;DHT22;18853;45.426;9.206;2022-09-25T07:22:47;20.80;59.50
32394;DHT22;18853;45.426;9.206;2022-09-25T07:25:13;20.80;59.50
32394;DHT22;18853;45.426;9.206;2022-09-25T07:27:38;20.80;59.50
32394;DHT22;18853;45.426;9.206;2022-09-25T07:30:05;20.80;59.50
32394;DHT22;18853;45.426;9.206;2022-09-25T07:32:31;20.80;59.60
32394;DHT22;18853;45.426;9.206;2022-09-25T07:34:57;20.70;59.60
32394;DHT22;18853;45.426;9.206;2022-09-25T07:37:23;20.70;59.70
32394;DHT22;18853;45.426;9.206;2022-09-25T07:39:49;20.70;59.80
32394;DHT22;18853;45.426;9.206;2022-09-25T07:42:14;20.60;59.90
32394;DHT22;18853;45.426;9.206;2022-09-25T07:44:41;20.60;60.10
32394;DHT22;18853;45.426;9.206;2022-09-25T07:47:07;20.60;60.10
32394;DHT22;18853;45.426;9.206;2022-09-25T07:49:33;20.60;60.30
32394;DHT22;18853;45.426;9.206;2022-09-25T07:52:00;20.60;60.40
32394;DHT22;18853;45.426;9.206;2022-09-25T07:54:26;20.60;60.50
32394;DHT22;18853;45.426;9.206;2022-09-25T07:56:51;20.60;60.30
32394;DHT22;18853;45.426;9.206;2022-09-25T07:59:17;20.60;60.20
32394;DHT22;18853;45.426;9.206;2022-09-25T08:01:43;20.60;60.40
32394;DHT22;18853;45.426;9.206;2022-09-25T08:04:08;20.60;60.50
32394;DHT22;18853;45.426;9.206;2022-09-25T08:06:34;20.60;60.50
32394;DHT22;18853;45.426;9.206;2022-09-25T08:09:01;20.70;60.70
32394;DHT22;18853;45.426;9.206;2022-09-25T08:11:26;20.70;60.80
32394;DHT22;18853;45.426;9.206;2022-09-25T08:13:55;20.70;60.70
32394;DHT22;18853;45.426;9.206;2022-09-25T08:16:21;20.70;60.70
32394;DHT22;18853;45.426;9.206;2022-09-25T08:18:48;20.70;60.50
32394;DHT22;18853;45.426;9.206;2022-09-25T08:21:16;20.80;60.30
32394;DHT22;18853;45.426;9.206;2022-09-25T08:23:46;20.80;60.30
32394;DHT22;18853;45.426;9.206;2022-09-25T08:26:13;20.80;60.40
32394;DHT22;18853;45.426;9.206;2022-09-25T08:28:38;20.80;60.30
32394;DHT22;18853;45.426;9.206;2022-09-25T08:31:04;20.80;60.20
32394;DHT22;18853;45.426;9.206;2022-09-25T08:33:30;20.80;60.10
32394;DHT22;18853;45.426;9.206;2022-09-25T08:36:01;20.80;60.00
32394;DHT22;18853;45.426;9.206;2022-09-25T08:38:27;20.80;60.00
32394;DHT22;18853;45.426;9.206;2022-09-25T08:40:54;20.80;60.00
32394;DHT22;18853;45.426;9.206;2022-09-25T08:43:28;20.80;59.80
32394;DHT22;18853;45.426;9.206;2022-09-25T08:45:56;20.80;59.70
32394;DHT22;18853;45.426;9.206;2022-09-25T08:48:42;20.80;59.70
32394;DHT22;18853;45.426;9.206;2022-09-25T08:54:02;20.90;59.40
32394;DHT22;18853;45.426;9.206;2022-09-25T08:56:29;20.90;59.40
32394;DHT22;18853;45.426;9.206;2022-09-25T08:59:07;20.90;59.20
32394;DHT22;18853;45.426;9.206;2022-09-25T09:01:47;20.90;59.20
32394;DHT22;18853;45.426;9.206;2022-09-25T09:04:30;20.90;59.20
32394;DHT22;18853;45.426;9.206;2022-09-25T09:07:03;20.90;59.20
32394;DHT22;18853;45.426;9.206;2022-09-25T09:09:39;20.90;59.20
32394;DHT22;18853;45.426;9.206;2022-09-25T09:12:27;20.90;59.00
32394;DHT22;18853;45.426;9.206;2022-09-25T09:14:58;20.80;59.00
32394;DHT22;18853;45.426;9.206;2022-09-25T09:17:36;20.80;58.90
32394;DHT22;18853;45.426;9.206;2022-09-25T09:20:20;20.80;58.60
32394;DHT22;18853;45.426;9.206;2022-09-25T09:22:49;20.90;58.30
32394;DHT22;18853;45.426;9.206;2022-09-25T09:25:21;20.90;58.40
32394;DHT22;18853;45.426;9.206;2022-09-25T09:31:01;20.90;58.50
32394;DHT22;18853;45.426;9.206;2022-09-25T09:36:41;21.00;58.60
32394;DHT22;18853;45.426;9.206;2022-09-25T09:53:04;20.90;58.10
32394;DHT22;18853;45.426;9.206;2022-09-25T09:55:45;21.00;58.10
32394;DHT22;18853;45.426;9.206;2022-09-25T10:00:46;21.10;57.60
32394;DHT22;18853;45.426;9.206;2022-09-25T10:03:25;21.10;57.60
32394;DHT22;18853;45.426;9.206;2022-09-25T10:05:56;21.20;57.70
32394;DHT22;18853;45.426;9.206;2022-09-25T10:08:23;21.20;57.30
32394;DHT22;18853;45.426;9.206;2022-09-25T10:10:51;21.30;57.10
32394;DHT22;18853;45.426;9.206;2022-09-25T10:15:56;21.30;56.60
32394;DHT22;18853;45.426;9.206;2022-09-25T10:18:27;21.40;56.50
32394;DHT22;18853;45.426;9.206;2022-09-25T10:21:35;21.30;56.50
32394;DHT22;18853;45.426;9.206;2022-09-25T10:23:57;21.40;56.30
32394;DHT22;18853;45.426;9.206;2022-09-25T10:28:50;21.40;56.70
32394;DHT22;18853;45.426;9.206;2022-09-25T10:31:17;21.40;56.70
32394;DHT22;18853;45.426;9.206;2022-09-25T10:36:41;21.50;56.30
32394;DHT22;18853;45.426;9.206;2022-09-25T10:41:48;21.50;57.00
32394;DHT22;18853;45.426;9.206;2022-09-25T10:44:37;21.50;57.20
32394;DHT22;18853;45.426;9.206;2022-09-25T10:50:12;21.60;57.60
32394;DHT22;18853;45.426;9.206;2022-09-25T10:52:49;21.60;57.80
32394;DHT22;18853;45.426;9.206;2022-09-25T10:58:05;21.60;57.40
32394;DHT22;18853;45.426;9.206;2022-09-25T11:03:06;21.60;57.30
32394;DHT22;18853;45.426;9.206;2022-09-25T11:05:34;21.60;57.00
32394;DHT22;18853;45.426;9.206;2022-09-25T11:08:03;21.60;57.10
32394;DHT22;18853;45.426;9.206;2022-09-25T11:10:35;21.60;57.10
32394;DHT22;18853;45.426;9.206;2022-09-25T11:13:08;21.70;57.10
32394;DHT22;18853;45.426;9.206;2022-09-25T11:15:47;21.70;57.10
32394;DHT22;18853;45.426;9.206;2022-09-25T11:18:36;21.70;56.90
32394;DHT22;18853;45.426;9.206;2022-09-25T11:21:04;21.70;56.70
32394;DHT22;18853;45.426;9.206;2022-09-25T11:26:07;21.80;56.70
32394;DHT22;18853;45.426;9.206;2022-09-25T11:36:46;22.10;55.80
32394;DHT22;18853;45.426;9.206;2022-09-25T11:39:28;21.90;55.40
32394;DHT22;18853;45.426;9.206;2022-09-25T11:42:29;22.00;55.50
32394;DHT22;18853;45.426;9.206;2022-09-25T11:47:58;21.90;54.90
32394;DHT22;18853;45.426;9.206;2022-09-25T11:51:08;21.90;54.90
32394;DHT22;18853;45.426;9.206;2022-09-25T11:56:55;21.90;55.70
32394;DHT22;18853;45.426;9.206;2022-09-25T12:13:31;22.30;55.80
32394;DHT22;18853;45.426;9.206;2022-09-25T12:30:17;22.50;53.90
32394;DHT22;18853;45.426;9.206;2022-09-25T12:33:03;22.60;53.30
32394;DHT22;18853;45.426;9.206;2022-09-25T12:46:03;22.90;52.80
32394;DHT22;18853;45.426;9.206;2022-09-25T12:49:07;22.90;52.70
32394;DHT22;18853;45.426;9.206;2022-09-25T12:51:46;22.90;52.80
32394;DHT22;18853;45.426;9.206;2022-09-25T12:54:33;22.90;52.90
32394;DHT22;18853;45.426;9.206;2022-09-25T12:57:10;23.00;52.50
32394;DHT22;18853;45.426;9.206;2022-09-25T12:59:42;23.00;52.80
32394;DHT22;18853;45.426;9.206;2022-09-25T13:05:18;23.10;52.70
32394;DHT22;18853;45.426;9.206;2022-09-25T13:08:00;23.20;52.70
32394;DHT22;18853;45.426;9.206;2022-09-25T13:11:01;23.40;52.70
32394;DHT22;18853;45.426;9.206;2022-09-25T13:13:30;23.70;51.10
32394;DHT22;18853;45.426;9.206;2022-09-25T13:16:00;23.80;51.20
32394;DHT22;18853;45.426;9.206;2022-09-25T13:18:29;24.00;50.60
32394;DHT22;18853;45.426;9.206;2022-09-25T13:23:40;24.20;49.70
32394;DHT22;18853;45.426;9.206;2022-09-25T13:26:17;24.10;49.90
32394;DHT22;18853;45.426;9.206;2022-09-25T13:28:55;23.90;49.80
32394;DHT22;18853;45.426;9.206;2022-09-25T13:31:27;23.70;50.10
32394;DHT22;18853;45.426;9.206;2022-09-25T13:36:30;23.40;50.90
32394;DHT22;18853;45.426;9.206;2022-09-25T13:39:01;23.30;51.20
32394;DHT22;18853;45.426;9.206;2022-09-25T13:41:57;23.30;51.40
32394;DHT22;18853;45.426;9.206;2022-09-25T13:53:00;23.10;52.20
32394;DHT22;18853;45.426;9.206;2022-09-25T13:58:26;23.00;52.70
32394;DHT22;18853;45.426;9.206;2022-09-25T14:00:57;23.00;52.60
32394;DHT22;18853;45.426;9.206;2022-09-25T14:06:29;23.10;52.50
32394;DHT22;18853;45.426;9.206;2022-09-25T14:09:05;23.10;52.50
32394;DHT22;18853;45.426;9.206;2022-09-25T14:11:34;23.10;52.60
32394;DHT22;18853;45.426;9.206;2022-09-25T14:14:06;23.00;52.70
32394;DHT22;18853;45.426;9.206;2022-09-25T14:16:53;23.10;52.70
32394;DHT22;18853;45.426;9.206;2022-09-25T14:19:27;23.10;52.70
32394;DHT22;18853;45.426;9.206;2022-09-25T14:21:54;23.10;52.90
32394;DHT22;18853;45.426;9.206;2022-09-25T14:24:28;23.10;53.00
32394;DHT22;18853;45.426;9.206;2022-09-25T14:26:59;23.10;52.90
32394;DHT22;18853;45.426;9.206;2022-09-25T14:30:03;23.10;53.60
32394;DHT22;18853;45.426;9.206;2022-09-25T14:33:45;23.00;52.90
32394;DHT22;18853;45.426;9.206;2022-09-25T14:35:55;23.00;53.30
32394;DHT22;18853;45.426;9.206;2022-09-25T14:41:39;22.90;53.50
32394;DHT22;18853;45.426;9.206;2022-09-25T14:44:30;23.00;53.60
32394;DHT22;18853;45.426;9.206;2022-09-25T14:47:00;23.00;53.60
32394;DHT22;18853;45.426;9.206;2022-09-25T14:49:34;23.00;53.30
32394;DHT22;18853;45.426;9.206;2022-09-25T14:52:09;23.10;53.40
32394;DHT22;18853;45.426;9.206;2022-09-25T14:54:41;23.20;53.40
32394;DHT22;18853;45.426;9.206;2022-09-25T14:57:07;23.50;53.10
32394;DHT22;18853;45.426;9.206;2022-09-25T14:59:48;23.70;52.60
32394;DHT22;18853;45.426;9.206;2022-09-25T15:02:19;23.90;52.30
32394;DHT22;18853;45.426;9.206;2022-09-25T15:04:47;24.10;51.90
32394;DHT22;18853;45.426;9.206;2022-09-25T15:07:16;24.40;51.40
32394;DHT22;18853;45.426;9.206;2022-09-25T15:09:45;24.50;50.90
32394;DHT22;18853;45.426;9.206;2022-09-25T15:15:06;24.70;50.80
32394;DHT22;18853;45.426;9.206;2022-09-25T15:17:44;24.80;49.90
32394;DHT22;18853;45.426;9.206;2022-09-25T15:20:17;24.90;50.50
32394;DHT22;18853;45.426;9.206;2022-09-25T15:22:55;25.00;50.20
32394;DHT22;18853;45.426;9.206;2022-09-25T15:25:42;25.10;49.70
32394;DHT22;18853;45.426;9.206;2022-09-25T15:28:18;25.20;49.40
32394;DHT22;18853;45.426;9.206;2022-09-25T15:30:50;25.10;49.20
32394;DHT22;18853;45.426;9.206;2022-09-25T15:35:55;24.90;49.30
32394;DHT22;18853;45.426;9.206;2022-09-25T15:40:54;24.90;49.40
32394;DHT22;18853;45.426;9.206;2022-09-25T15:43:20;25.00;49.60
32394;DHT22;18853;45.426;9.206;2022-09-25T15:45:56;24.90;49.50
32394;DHT22;18853;45.426;9.206;2022-09-25T15:48:26;24.80;49.20
32394;DHT22;18853;45.426;9.206;2022-09-25T15:50:54;24.70;49.70
32394;DHT22;18853;45.426;9.206;2022-09-25T15:53:25;24.60;49.80
32394;DHT22;18853;45.426;9.206;2022-09-25T15:56:22;24.50;50.10
32394;DHT22;18853;45.426;9.206;2022-09-25T15:58:55;24.60;50.00
32394;DHT22;18853;45.426;9.206;2022-09-25T16:01:24;24.50;50.60
32394;DHT22;18853;45.426;9.206;2022-09-25T16:04:18;24.40;50.20
32394;DHT22;18853;45.426;9.206;2022-09-25T16:07:31;24.30;50.50
32394;DHT22;18853;45.426;9.206;2022-09-25T16:12:42;24.30;50.70
32394;DHT22;18853;45.426;9.206;2022-09-25T16:17:59;24.40;50.20
32394;DHT22;18853;45.426;9.206;2022-09-25T16:22:59;24.30;50.20
32394;DHT22;18853;45.426;9.206;2022-09-25T16:25:36;24.20;50.40
32394;DHT22;18853;45.426;9.206;2022-09-25T16:30:47;24.10;50.70
32394;DHT22;18853;45.426;9.206;2022-09-25T16:33:22;24.00;50.90
32394;DHT22;18853;45.426;9.206;2022-09-25T16:35:50;23.90;51.00
32394;DHT22;18853;45.426;9.206;2022-09-25T16:38:34;23.90;51.30
32394;DHT22;18853;45.426;9.206;2022-09-25T16:43:30;23.80;51.60
32394;DHT22;18853;45.426;9.206;2022-09-25T16:46:00;23.70;51.60
32394;DHT22;18853;45.426;9.206;2022-09-25T16:50:57;23.70;51.70
32394;DHT22;18853;45.426;9.206;2022-09-25T16:53:24;23.70;51.80
32394;DHT22;18853;45.426;9.206;2022-09-25T16:55:51;23.60;51.90
32394;DHT22;18853;45.426;9.206;2022-09-25T16:58:19;23.60;52.10
32394;DHT22;18853;45.426;9.206;2022-09-25T17:00:45;23.60;52.20
32394;DHT22;18853;45.426;9.206;2022-09-25T17:03:14;23.50;52.20
32394;DHT22;18853;45.426;9.206;2022-09-25T17:05:40;23.50;52.30
32394;DHT22;18853;45.426;9.206;2022-09-25T17:08:23;23.40;52.40
32394;DHT22;18853;45.426;9.206;2022-09-25T17:10:50;23.40;52.50
32394;DHT22;18853;45.426;9.206;2022-09-25T17:13:19;23.30;52.60
32394;DHT22;18853;45.426;9.206;2022-09-25T17:15:50;23.30;52.70
32394;DHT22;18853;45.426;9.206;2022-09-25T17:18:17;23.20;52.70
32394;DHT22;18853;45.426;9.206;2022-09-25T17:20:44;23.30;52.90
32394;DHT22;18853;45.426;9.206;2022-09-25T17:23:10;23.20;52.90
32394;DHT22;18853;45.426;9.206;2022-09-25T17:25:45;23.20;53.00
32394;DHT22;18853;45.426;9.206;2022-09-25T17:28:13;23.20;53.00
32394;DHT22;18853;45.426;9.206;2022-09-25T17:30:40;23.10;53.20
32394;DHT22;18853;45.426;9.206;2022-09-25T17:33:15;23.10;53.10
32394;DHT22;18853;45.426;9.206;2022-09-25T17:38:10;23.10;53.00
32394;DHT22;18853;45.426;9.206;2022-09-25T17:40:38;23.00;53.00
32394;DHT22;18853;45.426;9.206;2022-09-25T17:43:04;23.00;53.00
32394;DHT22;18853;45.426;9.206;2022-09-25T17:45:37;23.00;53.30
32394;DHT22;18853;45.426;9.206;2022-09-25T17:48:04;23.00;53.20
32394;DHT22;18853;45.426;9.206;2022-09-25T17:50:30;23.00;53.30
32394;DHT22;18853;45.426;9.206;2022-09-25T17:52:57;23.00;53.30
32394;DHT22;18853;45.426;9.206;2022-09-25T17:55:23;23.00;53.40
32394;DHT22;18853;45.426;9.206;2022-09-25T17:57:49;22.90;53.40
32394;DHT22;18853;45.426;9.206;2022-09-25T18:00:15;22.90;53.50
32394;DHT22;18853;45.426;9.206;2022-09-25T18:02:41;22.90;53.60
32394;DHT22;18853;45.426;9.206;2022-09-25T18:05:15;22.80;53.70
32394;DHT22;18853;45.426;9.206;2022-09-25T18:07:41;22.80;53.90
32394;DHT22;18853;45.426;9.206;2022-09-25T18:10:08;22.80;54.00
32394;DHT22;18853;45.426;9.206;2022-09-25T18:12:34;22.70;54.10
32394;DHT22;18853;45.426;9.206;2022-09-25T18:14:59;22.70;54.10
32394;DHT22;18853;45.426;9.206;2022-09-25T18:17:25;22.70;54.20
32394;DHT22;18853;45.426;9.206;2022-09-25T18:19:51;22.70;54.20
32394;DHT22;18853;45.426;9.206;2022-09-25T18:22:35;22.70;54.30
32394;DHT22;18853;45.426;9.206;2022-09-25T18:25:02;22.70;54.40
32394;DHT22;18853;45.426;9.206;2022-09-25T18:27:32;22.70;54.20
32394;DHT22;18853;45.426;9.206;2022-09-25T18:29:58;22.70;54.20
32394;DHT22;18853;45.426;9.206;2022-09-25T18:32:24;22.70;54.30
32394;DHT22;18853;45.426;9.206;2022-09-25T18:34:50;22.70;54.30
32394;DHT22;18853;45.426;9.206;2022-09-25T18:37:15;22.70;54.40
32394;DHT22;18853;45.426;9.206;2022-09-25T18:39:41;22.70;54.40
32394;DHT22;18853;45.426;9.206;2022-09-25T18:42:09;22.70;54.50
32394;DHT22;18853;45.426;9.206;2022-09-25T18:44:34;22.60;54.50
32394;DHT22;18853;45.426;9.206;2022-09-25T18:47:03;22.60;54.50
32394;DHT22;18853;45.426;9.206;2022-09-25T18:49:30;22.60;54.60
32394;DHT22;18853;45.426;9.206;2022-09-25T18:51:55;22.60;54.70
32394;DHT22;18853;45.426;9.206;2022-09-25T18:54:21;22.60;54.80
32394;DHT22;18853;45.426;9.206;2022-09-25T18:56:47;22.50;54.80
32394;DHT22;18853;45.426;9.206;2022-09-25T18:59:13;22.50;55.00
32394;DHT22;18853;45.426;9.206;2022-09-25T19:01:39;22.50;55.10
32394;DHT22;18853;45.426;9.206;2022-09-25T19:04:06;22.50;55.10